Shirak, Armenia

10:47 AM EEST on October 25, 2014 (GMT +0300)
SHIRAK | Change Station
CLOSE
Current Station
Airport
Location: SHIRAK,
Elevation: 5000 ft
Nearby Weather Stations

Elev 5000 ft 40.75 °N, 43.86 °E | Updated 17 minutes ago

Scattered Clouds
Scattered Clouds
55 °F
Feels Like 55 °F
N
2
Wind Variable Wind from Variable

Today
High -- | Low -- °F
--% Chance of Precip.
Yesterday
High -- | Low -- °F
Precip. -- in
6:26 AM 5:10 PM
New Moon, 2% visible
Pressure 30.06 in
Visibility 5.6 miles
Clouds Few 5000 ft
Scattered Clouds 10000 ft
Dew Point 37 °F
Humidity 51%
Rainfall 0.00 in
Snow Depth Not available.
UV 3 out of 12
Pollen Not available.
Air Quality Not available.
Flu Activity Not available.
METAR UDSG 250730Z VRB01MPS 9000 FEW050 SCT100 13/03 Q1018 R02/CLRD70 NOSIG

More Conditions Fewer Conditions

Pressure 30.06 in
Visibility 5.6 miles
Clouds Few 5000 ft
Scattered Clouds 10000 ft
Dew Point 37 °F
Humidity 51%
Rainfall 0.00 in
Snow Depth Not available.
UV 3 out of 12
Pollen Not available.
Air Quality Not available.
Flu Activity Not available.
METAR UDSG 250730Z VRB01MPS 9000 FEW050 SCT100 13/03 Q1018 R02/CLRD70 NOSIG

More Conditions Fewer Conditions

10-Day Weather Forecast

Almanac

Astronomy

Oct. 25, 2014 Rise Set
Actual Time 6:26 AM EEST 5:10 PM EEST
Civil Twilight 5:58 AM EEST 5:38 PM EEST
Nautical Twilight 5:26 AM EEST 6:10 PM EEST
Astronomical Twilight 4:54 AM EEST 6:42 PM EEST
Moon 7:43 AM EEST 6:16 PM EEST
Length of Visible Light 11h 39m
Length of Day
10h 43m
Tomorrow will be 2m 29s shorter.
New Moon, 2% of the Moon is Illuminated
Today
New Moon
Oct 30
First Quarter
Nov 6
Full
Nov 14
Last Quarter
Nov 22
New

Yesterday's Extremes

Country Highs Country Lows

Community

WunderPhotos

Upload Photos

1,764,791 photos uploaded!

Nearby

Snow Depth

Not available.

Earthquake Activity

City Distance Mag. Time & Date
No recent earthquake activity has been reported nearby.
Minimum magnitude displayed is 2.5.

Coastal Water Temperatures

Place Temperature
No Stations Reporting

Nearby Weather Stations